PILOTS ONLINE: 648    ATC ONLINE: 179

KGKY

Arlington Municipal Airport

Location

City Arlington
Country  United States
Latitude 32° 39' 50" N
Longitude 97° 5' 39" W
Elevation 628 ft
Type Small Airport

Map

Weather

METAR
2014/08/23 16:53
KGKY 231653Z 18007KT 10SM CLR 32/16 A3001 RMK AO2 SLP151 T03220156
TAF
2014/08/23 15:00
TAF 
      AMD KGKY 231458Z 2315/2412 18012KT P6SM SKC

Runways

16/34 6080 ft / 100 ft

Outbound flights

Callsign Flying to Pilot ATD/STD ETA Aircraft

Inbound flights

Callsign Flying from Pilot ATD ETA Aircraft